createdAt,value
2023-02-14T00:00:55.662Z,12.00
2023-02-14T00:03:22.278Z,12.27
2023-02-14T00:05:49.533Z,12.98
2023-02-14T00:08:16.485Z,14.48
2023-02-14T00:10:43.030Z,13.20
2023-02-14T00:13:09.679Z,12.45
2023-02-14T00:15:36.191Z,12.70
2023-02-14T00:18:03.573Z,10.48
2023-02-14T00:20:30.256Z,12.77
2023-02-14T00:22:56.855Z,12.13
2023-02-14T00:25:23.532Z,12.95
2023-02-14T00:27:50.911Z,11.98
2023-02-14T00:30:17.488Z,12.98
2023-02-14T00:32:44.171Z,11.10
2023-02-14T00:35:11.547Z,11.55
2023-02-14T00:37:38.467Z,11.15
2023-02-14T00:40:07.471Z,10.90
2023-02-14T00:42:34.348Z,11.88
2023-02-14T00:45:01.065Z,11.38
2023-02-14T00:47:27.646Z,11.40
2023-02-14T00:49:54.326Z,12.35
2023-02-14T00:52:20.873Z,10.90
2023-02-14T00:54:47.425Z,12.98
2023-02-14T00:57:14.183Z,11.93
2023-02-14T00:59:40.844Z,11.75
2023-02-14T01:02:07.457Z,11.20
2023-02-14T01:04:34.188Z,12.38
2023-02-14T01:07:00.737Z,11.63
2023-02-14T01:09:27.346Z,12.23
2023-02-14T01:11:54.010Z,12.52
2023-02-14T01:14:20.587Z,13.25
2023-02-14T01:16:47.150Z,12.65
2023-02-14T01:19:14.204Z,13.68
2023-02-14T01:21:41.815Z,14.90
2023-02-14T01:24:09.530Z,12.75
2023-02-14T01:26:36.665Z,12.70
2023-02-14T01:29:04.188Z,13.35
2023-02-14T01:31:32.648Z,12.68
2023-02-14T01:33:59.913Z,14.13
2023-02-14T01:36:30.069Z,13.20
2023-02-14T01:38:59.879Z,13.43
2023-02-14T01:41:29.071Z,11.85
2023-02-14T01:46:35.392Z,14.65
2023-02-14T01:51:43.198Z,14.85
2023-02-14T01:54:11.426Z,13.40
2023-02-14T01:56:41.720Z,14.50
2023-02-14T01:59:13.761Z,15.38
2023-02-14T02:01:41.575Z,14.15
2023-02-14T02:04:13.292Z,14.77
2023-02-14T02:06:43.458Z,15.15
2023-02-14T02:09:16.575Z,16.30
2023-02-14T02:11:43.493Z,14.77
2023-02-14T02:14:15.952Z,14.35
2023-02-14T02:20:00.487Z,13.80
2023-02-14T02:28:56.311Z,15.40
2023-02-14T02:31:43.534Z,15.32
2023-02-14T02:34:50.248Z,15.40
2023-02-14T02:51:13.744Z,14.48
2023-02-14T02:53:49.680Z,14.02
2023-02-14T02:59:18.840Z,22.02
2023-02-14T03:01:58.042Z,14.95
2023-02-14T03:04:46.758Z,13.75
2023-02-14T03:07:33.567Z,13.43
2023-02-14T03:10:02.242Z,14.25
2023-02-14T03:12:47.232Z,13.77
2023-02-14T03:21:00.758Z,15.05
2023-02-14T03:23:36.287Z,15.90
2023-02-14T03:29:06.126Z,15.98
2023-02-14T03:34:24.185Z,13.07
2023-02-14T03:42:11.694Z,17.02
2023-02-14T03:44:40.710Z,13.50
2023-02-14T03:47:12.204Z,15.07
2023-02-14T03:49:45.469Z,15.05
2023-02-14T03:52:14.485Z,14.63
2023-02-14T03:54:42.107Z,13.07
2023-02-14T03:57:24.607Z,13.68
2023-02-14T03:59:51.286Z,13.35
2023-02-14T04:02:25.137Z,13.52
2023-02-14T04:04:54.338Z,12.88
2023-02-14T04:07:23.226Z,13.95
2023-02-14T04:09:50.446Z,13.77
2023-02-14T04:12:26.540Z,15.15
2023-02-14T04:14:59.029Z,13.52
2023-02-14T04:17:45.458Z,15.70
2023-02-14T04:20:12.234Z,15.85
2023-02-14T04:22:38.766Z,14.05
2023-02-14T04:25:05.625Z,15.77
2023-02-14T04:27:32.175Z,14.52
2023-02-14T04:29:58.860Z,13.52
2023-02-14T04:32:25.515Z,15.93
2023-02-14T04:34:52.115Z,15.88
2023-02-14T04:37:19.715Z,14.10
2023-02-14T04:39:46.366Z,13.73
2023-02-14T04:42:14.296Z,16.35
2023-02-14T04:44:40.887Z,13.57
2023-02-14T04:47:08.377Z,15.45
2023-02-14T04:49:35.646Z,14.88
2023-02-14T04:52:03.005Z,16.00
2023-02-14T04:54:29.804Z,16.13
2023-02-14T04:56:56.392Z,15.65
2023-02-14T04:59:24.825Z,15.98
2023-02-14T05:01:52.000Z,14.95
2023-02-14T05:04:18.651Z,15.13
2023-02-14T05:06:45.210Z,13.80
2023-02-14T05:09:11.869Z,15.07
2023-02-14T05:11:38.533Z,14.27
2023-02-14T05:14:05.130Z,14.57
2023-02-14T05:16:31.794Z,15.05
2023-02-14T05:18:58.401Z,14.85
2023-02-14T05:21:25.054Z,12.85
2023-02-14T05:23:51.586Z,13.57
2023-02-14T05:26:18.214Z,12.82
2023-02-14T05:28:44.757Z,11.50
2023-02-14T05:31:11.591Z,12.63
2023-02-14T05:33:38.271Z,11.88
2023-02-14T05:36:05.303Z,11.55
2023-02-14T05:38:33.550Z,11.07
2023-02-14T05:41:00.343Z,10.68
2023-02-14T05:43:27.103Z,11.77
2023-02-14T05:45:54.689Z,10.75
2023-02-14T05:48:21.505Z,11.30
2023-02-14T05:50:48.279Z,9.85
2023-02-14T05:53:15.586Z,10.00
2023-02-14T05:55:42.167Z,10.40
2023-02-14T05:58:08.711Z,10.52
2023-02-14T06:00:35.286Z,10.10
2023-02-14T06:03:01.861Z,11.43
2023-02-14T06:05:28.541Z,11.57
2023-02-14T06:07:55.085Z,10.98
2023-02-14T06:10:23.696Z,10.45
2023-02-14T06:12:52.188Z,11.63
2023-02-14T06:15:19.234Z,10.85
2023-02-14T06:17:47.963Z,10.80
2023-02-14T06:20:14.519Z,11.60
2023-02-14T06:22:41.049Z,10.75
2023-02-14T06:25:07.815Z,10.57
2023-02-14T06:27:34.645Z,11.40
2023-02-14T06:30:01.253Z,11.43
2023-02-14T06:32:27.931Z,10.70
2023-02-14T06:34:54.476Z,12.10
2023-02-14T06:37:21.154Z,12.35
2023-02-14T06:39:47.729Z,10.85
2023-02-14T06:42:14.335Z,10.50
2023-02-14T06:44:40.924Z,10.52
2023-02-14T06:47:08.594Z,11.63
2023-02-14T06:49:35.199Z,12.15
2023-02-14T06:52:01.949Z,11.05
2023-02-14T06:54:28.481Z,12.63
2023-02-14T06:56:55.106Z,10.20
2023-02-14T06:59:21.800Z,10.27
2023-02-14T07:01:48.436Z,10.95
2023-02-14T07:04:14.991Z,10.63
2023-02-14T07:06:41.658Z,10.35
2023-02-14T07:09:08.322Z,9.50
2023-02-14T07:11:34.913Z,11.93
2023-02-14T07:14:01.534Z,11.88
2023-02-14T07:16:28.072Z,10.82
2023-02-14T07:18:54.661Z,11.48
2023-02-14T07:21:21.191Z,10.85
2023-02-14T07:23:50.005Z,10.20
2023-02-14T07:26:18.263Z,10.88
2023-02-14T07:28:45.696Z,10.35
2023-02-14T07:31:12.645Z,11.23
2023-02-14T07:33:39.266Z,10.85
2023-02-14T07:36:08.139Z,10.50
2023-02-14T07:38:35.234Z,11.23
2023-02-14T07:41:02.332Z,10.43
2023-02-14T07:43:29.060Z,10.50
2023-02-14T07:45:55.742Z,10.55
2023-02-14T07:48:22.564Z,11.43
2023-02-14T07:50:49.153Z,10.35
2023-02-14T07:53:15.710Z,11.43
2023-02-14T07:55:42.337Z,11.18
2023-02-14T07:58:09.378Z,10.73
2023-02-14T08:00:36.014Z,10.57
2023-02-14T08:03:02.567Z,10.32
2023-02-14T08:05:29.232Z,11.50
2023-02-14T08:07:55.767Z,10.93
2023-02-14T08:10:22.290Z,11.43
2023-02-14T08:13:05.048Z,11.30
2023-02-14T08:15:54.289Z,12.27
2023-02-14T08:18:23.211Z,9.95
2023-02-14T08:20:50.099Z,10.02
2023-02-14T08:23:18.056Z,10.40
2023-02-14T08:25:44.760Z,12.43
2023-02-14T08:28:13.282Z,10.95
2023-02-14T08:30:39.832Z,10.10
2023-02-14T08:33:07.097Z,10.40
2023-02-14T08:35:34.018Z,11.45
2023-02-14T08:38:00.812Z,11.32
2023-02-14T08:40:27.888Z,8.02
2023-02-14T08:42:54.549Z,9.65
2023-02-14T08:45:21.267Z,11.57
2023-02-14T08:47:47.886Z,10.40
2023-02-14T08:50:17.011Z,11.95
2023-02-14T08:52:44.348Z,11.27
2023-02-14T08:55:13.224Z,12.18
2023-02-14T08:57:40.458Z,12.00
2023-02-14T09:00:08.608Z,11.18
2023-02-14T09:02:35.848Z,11.57
2023-02-14T09:05:02.510Z,11.98
2023-02-14T09:07:29.192Z,10.80
2023-02-14T09:09:55.781Z,10.55
2023-02-14T09:12:22.341Z,11.85
2023-02-14T09:14:49.541Z,10.57
2023-02-14T09:17:16.507Z,12.43
2023-02-14T09:19:43.072Z,13.45
2023-02-14T09:22:11.452Z,11.02
2023-02-14T09:24:39.594Z,12.20
2023-02-14T09:27:07.887Z,12.20
2023-02-14T09:29:34.722Z,12.20
2023-02-14T09:32:02.754Z,10.73
2023-02-14T09:34:30.101Z,12.35
2023-02-14T09:36:56.953Z,13.55
2023-02-14T09:39:23.889Z,12.00
2023-02-14T09:42:03.157Z,12.32
2023-02-14T09:44:37.346Z,11.75
2023-02-14T09:47:21.282Z,10.85
2023-02-14T09:49:50.257Z,10.57
2023-02-14T09:52:19.803Z,11.48
2023-02-14T09:54:51.509Z,11.20
2023-02-14T10:02:46.921Z,11.07
2023-02-14T10:05:32.559Z,10.73
2023-02-14T10:10:46.589Z,12.18
2023-02-14T10:13:19.690Z,13.40
2023-02-14T10:15:50.869Z,13.00
2023-02-14T10:18:42.681Z,12.93
2023-02-14T10:21:16.173Z,12.43
2023-02-14T10:23:49.141Z,12.43
2023-02-14T10:26:24.928Z,14.52
2023-02-14T10:28:51.945Z,13.35
2023-02-14T10:34:04.938Z,15.02
2023-02-14T10:41:53.278Z,14.90
2023-02-14T10:49:54.627Z,13.07
2023-02-14T10:55:33.012Z,12.88
2023-02-14T10:58:03.072Z,13.48
2023-02-14T11:00:35.270Z,11.23
2023-02-14T11:03:06.225Z,13.13
2023-02-14T11:05:41.331Z,11.75
2023-02-14T11:10:51.878Z,13.07
2023-02-14T11:13:28.781Z,14.25
2023-02-14T11:15:59.633Z,15.05
2023-02-14T11:18:33.122Z,15.32
2023-02-14T11:21:10.771Z,13.98
2023-02-14T11:23:42.709Z,14.88
2023-02-14T11:26:17.437Z,15.88
2023-02-14T11:29:03.998Z,13.90
2023-02-14T11:31:35.298Z,13.73
2023-02-14T11:34:05.355Z,14.32
2023-02-14T11:36:32.727Z,12.48
2023-02-14T11:39:08.184Z,15.30
2023-02-14T11:41:51.191Z,13.65
2023-02-14T11:44:22.838Z,14.73
2023-02-14T11:46:53.382Z,12.90
2023-02-14T11:52:17.451Z,15.30
2023-02-14T11:54:49.519Z,16.23
2023-02-14T11:57:28.396Z,16.92
2023-02-14T11:59:57.170Z,15.48
2023-02-14T12:05:17.994Z,18.27
2023-02-14T12:07:46.419Z,13.32
2023-02-14T12:31:41.614Z,14.45
2023-02-14T12:34:12.127Z,12.77
2023-02-14T12:48:16.686Z,12.43
2023-02-14T13:04:40.902Z,12.20
2023-02-14T13:09:59.852Z,12.38
2023-02-14T13:17:52.435Z,11.82
2023-02-14T13:23:13.612Z,10.77
2023-02-14T13:25:49.849Z,12.38
2023-02-14T13:28:18.083Z,11.88
2023-02-14T13:30:44.742Z,11.85
2023-02-14T13:33:27.258Z,11.20
2023-02-14T13:36:00.107Z,13.07
2023-02-14T13:38:28.350Z,11.75
2023-02-14T13:40:57.726Z,12.07
2023-02-14T13:43:46.113Z,12.48
2023-02-14T13:46:15.056Z,13.10
2023-02-14T13:48:43.258Z,13.63
2023-02-14T13:51:10.719Z,12.45
2023-02-14T13:59:01.513Z,12.77
2023-02-14T14:01:50.246Z,13.43
2023-02-14T14:04:37.500Z,13.23
2023-02-14T14:12:38.179Z,17.35
2023-02-14T14:23:28.995Z,14.88
2023-02-14T14:25:55.606Z,14.90
2023-02-14T14:28:25.978Z,12.27
2023-02-14T14:30:52.849Z,15.68
2023-02-14T14:36:08.326Z,11.10
2023-02-14T14:38:47.313Z,11.02
2023-02-14T14:41:14.005Z,10.98
2023-02-14T14:43:41.486Z,11.52
2023-02-14T14:46:12.270Z,9.77
2023-02-14T14:48:50.184Z,10.75
2023-02-14T14:51:31.092Z,9.73
2023-02-14T14:54:01.338Z,9.80
2023-02-14T14:56:31.799Z,9.85
2023-02-14T14:59:15.366Z,10.15
2023-02-14T15:01:46.880Z,10.23
2023-02-14T15:06:51.835Z,12.20
2023-02-14T15:09:24.297Z,10.88
2023-02-14T15:12:13.231Z,11.50
2023-02-14T15:14:43.795Z,10.20
2023-02-14T15:19:54.677Z,9.15
2023-02-14T15:22:41.518Z,8.27
2023-02-14T15:25:12.863Z,8.30
2023-02-14T15:27:41.496Z,8.63
2023-02-14T15:32:57.865Z,10.35
2023-02-14T15:35:27.795Z,9.77
2023-02-14T15:37:57.122Z,10.00
2023-02-14T15:40:28.114Z,9.35
2023-02-14T15:42:57.449Z,11.32
2023-02-14T15:48:11.537Z,12.68
2023-02-14T15:50:46.786Z,11.73
2023-02-14T15:56:04.836Z,11.10
2023-02-14T15:58:35.483Z,11.18
2023-02-14T16:01:03.173Z,10.65
2023-02-14T16:03:33.973Z,10.40
2023-02-14T16:06:00.808Z,10.60
2023-02-14T16:11:15.865Z,9.70
2023-02-14T16:13:45.227Z,10.07
2023-02-14T16:16:14.112Z,9.65
2023-02-14T16:24:12.653Z,10.18
2023-02-14T16:29:17.093Z,9.57
2023-02-14T16:32:14.177Z,9.65
2023-02-14T16:34:34.371Z,9.23
2023-02-14T16:37:08.559Z,9.88
2023-02-14T16:39:35.674Z,9.18
2023-02-14T16:42:03.441Z,9.80
2023-02-14T16:44:30.030Z,9.93
2023-02-14T16:46:56.543Z,9.80
2023-02-14T16:49:23.849Z,10.07
2023-02-14T16:51:52.047Z,9.25
2023-02-14T16:54:20.609Z,9.20
2023-02-14T16:56:55.853Z,10.45
2023-02-14T16:59:23.061Z,10.63
2023-02-14T17:01:49.999Z,9.80
2023-02-14T17:04:16.595Z,9.82
2023-02-14T17:06:48.258Z,10.50
2023-02-14T17:09:17.806Z,10.27
2023-02-14T17:11:48.922Z,9.52
2023-02-14T17:14:19.681Z,9.70
2023-02-14T17:16:46.298Z,10.18
2023-02-14T17:19:13.710Z,9.30
2023-02-14T17:21:41.088Z,9.70
2023-02-14T17:24:07.642Z,10.00
2023-02-14T17:26:34.260Z,10.57
2023-02-14T17:29:00.948Z,9.75
2023-02-14T17:31:28.635Z,10.35
2023-02-14T17:33:55.443Z,9.40
2023-02-14T17:36:24.146Z,11.00
2023-02-14T17:38:53.338Z,9.18
2023-02-14T17:41:22.703Z,10.20
2023-02-14T17:43:50.402Z,10.75
2023-02-14T17:46:18.977Z,10.45
2023-02-14T17:48:46.334Z,9.57
2023-02-14T17:51:14.411Z,10.15
2023-02-14T17:53:41.759Z,10.50
2023-02-14T17:56:12.324Z,10.05
2023-02-14T17:58:39.165Z,9.25
2023-02-14T18:01:08.950Z,11.60
2023-02-14T18:03:36.165Z,10.95
2023-02-14T18:06:03.423Z,10.88
2023-02-14T18:08:32.186Z,10.63
2023-02-14T18:10:59.761Z,10.13
2023-02-14T18:13:26.720Z,11.07
2023-02-14T18:15:53.569Z,11.70
2023-02-14T18:18:20.500Z,11.50
2023-02-14T18:20:55.207Z,11.10
2023-02-14T18:23:22.634Z,11.25
2023-02-14T18:25:55.030Z,11.00
2023-02-14T18:28:23.032Z,9.55
2023-02-14T18:30:49.704Z,10.18
2023-02-14T18:33:17.805Z,10.48
2023-02-14T18:35:45.154Z,10.55
2023-02-14T18:38:12.066Z,10.95
2023-02-14T18:40:39.091Z,10.82
2023-02-14T18:43:05.867Z,12.18
2023-02-14T18:45:37.993Z,11.45
2023-02-14T18:48:05.845Z,12.48
2023-02-14T18:50:34.716Z,12.02
2023-02-14T18:53:01.350Z,11.82
2023-02-14T18:55:28.833Z,12.27
2023-02-14T18:57:55.441Z,12.00
2023-02-14T19:00:22.449Z,12.05
2023-02-14T19:02:49.030Z,12.18
2023-02-14T19:05:15.708Z,10.85
2023-02-14T19:07:42.394Z,12.85
2023-02-14T19:10:09.748Z,12.68
2023-02-14T19:12:36.361Z,12.60
2023-02-14T19:15:03.554Z,12.52
2023-02-14T19:17:30.233Z,11.20
2023-02-14T19:19:57.323Z,11.55
2023-02-14T19:22:24.084Z,11.38
2023-02-14T19:24:53.787Z,11.00
2023-02-14T19:27:21.604Z,12.05
2023-02-14T19:29:48.284Z,11.23
2023-02-14T19:32:14.963Z,10.75
2023-02-14T19:34:41.555Z,10.80
2023-02-14T19:37:08.074Z,11.98
2023-02-14T19:39:34.667Z,10.93
2023-02-14T19:42:01.273Z,11.73
2023-02-14T19:44:29.387Z,10.75
2023-02-14T19:46:56.676Z,11.07
2023-02-14T19:49:23.509Z,11.00
2023-02-14T19:51:51.468Z,11.38
2023-02-14T19:54:18.823Z,11.98
2023-02-14T19:56:46.727Z,12.27
2023-02-14T19:59:19.750Z,12.02
2023-02-14T20:01:50.539Z,12.40
2023-02-14T20:04:21.619Z,12.20
2023-02-14T20:06:49.123Z,12.15
2023-02-14T20:09:16.522Z,12.27
2023-02-14T20:11:49.967Z,11.40
2023-02-14T20:14:19.462Z,11.82
2023-02-14T20:16:47.271Z,12.43
2023-02-14T20:19:17.159Z,12.25
2023-02-14T20:21:46.105Z,12.48
2023-02-14T20:24:15.962Z,11.82
2023-02-14T20:26:42.758Z,11.05
2023-02-14T20:29:10.857Z,13.27
2023-02-14T20:31:42.928Z,12.38
2023-02-14T20:34:10.463Z,13.23
2023-02-14T20:36:37.396Z,11.75
2023-02-14T20:39:06.286Z,13.80
2023-02-14T20:41:35.045Z,12.60
2023-02-14T20:44:04.879Z,12.85
2023-02-14T20:46:32.062Z,12.95
2023-02-14T20:48:58.722Z,13.45
2023-02-14T20:51:26.399Z,12.73
2023-02-14T20:53:53.789Z,13.02
2023-02-14T20:56:21.559Z,13.35
2023-02-14T20:58:48.253Z,12.98
2023-02-14T21:01:17.840Z,12.50
2023-02-14T21:03:47.540Z,13.85
2023-02-14T21:06:15.073Z,12.93
2023-02-14T21:08:43.101Z,13.00
2023-02-14T21:11:11.600Z,13.65
2023-02-14T21:13:39.257Z,12.82
2023-02-14T21:16:09.303Z,12.88
2023-02-14T21:18:37.715Z,12.68
2023-02-14T21:21:06.674Z,13.20
2023-02-14T21:23:33.459Z,14.05
2023-02-14T21:26:00.069Z,13.45
2023-02-14T21:28:26.690Z,13.32
2023-02-14T21:31:01.789Z,13.50
2023-02-14T21:33:31.341Z,15.25
2023-02-14T21:36:04.859Z,13.90
2023-02-14T21:38:31.430Z,14.48
2023-02-14T21:41:04.917Z,13.77
2023-02-14T21:43:37.483Z,13.85
2023-02-14T21:46:06.331Z,13.90
2023-02-14T21:48:53.179Z,15.35
2023-02-14T21:51:20.442Z,13.00
2023-02-14T21:53:47.534Z,15.07
2023-02-14T21:56:18.070Z,14.02
2023-02-14T21:58:44.775Z,14.88
2023-02-14T22:01:25.151Z,14.77
2023-02-14T22:03:52.183Z,14.07
2023-02-14T22:06:19.225Z,15.07
2023-02-14T22:08:45.988Z,14.85
2023-02-14T22:11:15.326Z,15.98
2023-02-14T22:13:42.446Z,15.38
2023-02-14T22:16:13.080Z,16.38
2023-02-14T22:18:40.209Z,17.75
2023-02-14T22:21:11.482Z,16.75
2023-02-14T22:23:38.808Z,17.70
2023-02-14T22:26:23.373Z,18.17
2023-02-14T22:28:51.193Z,16.63
2023-02-14T22:31:18.688Z,19.15
2023-02-14T22:33:46.553Z,17.05
2023-02-14T22:36:13.217Z,17.70
2023-02-14T22:38:40.049Z,15.65
2023-02-14T22:43:43.244Z,16.77
2023-02-14T22:46:13.557Z,16.13
2023-02-14T22:48:40.834Z,14.55
2023-02-14T22:53:44.233Z,15.43
2023-02-14T22:56:13.627Z,16.50
2023-02-14T22:58:40.489Z,17.75
2023-02-14T23:01:11.997Z,17.33
2023-02-14T23:03:38.560Z,16.38
2023-02-14T23:06:05.172Z,17.45
2023-02-14T23:08:31.740Z,18.42
2023-02-14T23:11:06.447Z,19.77
2023-02-14T23:13:52.905Z,17.40
2023-02-14T23:16:39.372Z,18.88
2023-02-14T23:19:25.864Z,20.73
2023-02-14T23:21:55.678Z,16.73
2023-02-14T23:24:23.332Z,16.75
2023-02-14T23:26:50.488Z,17.92
2023-02-14T23:29:17.417Z,19.13
2023-02-14T23:31:44.184Z,19.13
2023-02-14T23:34:11.520Z,18.08
2023-02-14T23:36:38.329Z,16.90
2023-02-14T23:39:05.521Z,19.10
2023-02-14T23:41:47.686Z,17.80
2023-02-14T23:44:16.504Z,19.25
2023-02-14T23:46:43.441Z,19.35
2023-02-14T23:49:10.927Z,18.17
2023-02-14T23:51:37.492Z,18.48
2023-02-14T23:54:04.348Z,20.33
2023-02-14T23:56:30.973Z,18.08
2023-02-14T23:58:57.583Z,18.98
